Lockeport, Canada
Current Conditions -  °F | °C
As of 2:00 AM on Saturday 29 Nov 2014 (Local Time) from CYQI Reporting Station
Overcast Overcast  
Wind Chill: 19°   Ceiling: 5000
Heat Index: 30°   Visibility: 12mi
Dew Point: 21°   Wind: 16mph
Humidity: 69%   Direction: 330°NNW
Pressure: 30.07"   Gusts: NA
Location:  43.7°N, 65.12°W
Report Text: CYQI 290600Z 33014KT 12SM OVC050 M01/M06 A3007 RMK SC8 SLP183
Loading
Personal Weather Stations






























Interactive Weather Map New forecast layout! Learn more

10-Day Weather Forecast

Advertisements
Track Severe Weather on mobile